createdAt,value
2019-03-16T00:00:35.876Z,16.90
2019-03-16T00:03:25.217Z,22.40
2019-03-16T00:06:14.618Z,25.40
2019-03-16T00:09:04.584Z,22.97
2019-03-16T00:11:54.120Z,26.07
2019-03-16T00:14:43.350Z,22.30
2019-03-16T00:17:33.037Z,21.23
2019-03-16T00:20:22.294Z,27.40
2019-03-16T00:23:11.465Z,19.90
2019-03-16T00:26:00.302Z,24.70
2019-03-16T00:28:49.595Z,25.82
2019-03-16T00:31:38.737Z,21.20
2019-03-16T00:34:28.642Z,25.57
2019-03-16T00:37:17.640Z,23.12
2019-03-16T00:40:10.462Z,24.40
2019-03-16T00:42:59.042Z,21.62
2019-03-16T00:45:48.506Z,28.70
2019-03-16T00:48:37.743Z,25.17
2019-03-16T00:51:27.240Z,29.07
2019-03-16T00:54:16.129Z,17.77
2019-03-16T00:57:05.364Z,21.40
2019-03-16T00:59:54.700Z,21.45
2019-03-16T01:02:44.196Z,24.02
2019-03-16T01:05:34.091Z,23.90
2019-03-16T01:08:22.895Z,31.20
2019-03-16T01:11:12.218Z,32.90
2019-03-16T01:14:01.950Z,35.65
2019-03-16T01:16:50.965Z,24.75
2019-03-16T01:19:40.014Z,25.35
2019-03-16T01:22:29.783Z,20.70
2019-03-16T01:25:18.990Z,33.30
2019-03-16T01:28:07.836Z,28.70
2019-03-16T01:30:56.897Z,30.40
2019-03-16T01:33:46.474Z,34.80
2019-03-16T01:36:35.794Z,23.55
2019-03-16T01:39:25.019Z,32.40
2019-03-16T01:42:14.023Z,21.42
2019-03-16T01:45:03.361Z,15.53
2019-03-16T01:47:52.430Z,22.22
2019-03-16T01:50:41.685Z,21.73
2019-03-16T01:53:30.707Z,25.40
2019-03-16T01:56:20.019Z,19.07
2019-03-16T01:59:08.889Z,16.85
2019-03-16T02:01:58.456Z,30.20
2019-03-16T02:04:47.595Z,26.45
2019-03-16T02:07:36.584Z,23.75
2019-03-16T02:10:25.631Z,26.87
2019-03-16T02:13:14.702Z,28.15
2019-03-16T02:16:10.782Z,28.25
2019-03-16T02:18:54.485Z,28.42
2019-03-16T02:21:43.945Z,19.15
2019-03-16T02:24:33.437Z,22.13
2019-03-16T02:27:22.745Z,25.15
2019-03-16T02:30:13.587Z,19.27
2019-03-16T02:33:12.834Z,25.48
2019-03-16T02:35:52.763Z,25.23
2019-03-16T02:38:41.597Z,31.10
2019-03-16T02:41:30.986Z,25.12
2019-03-16T02:44:20.279Z,29.18
2019-03-16T02:47:09.092Z,18.80
2019-03-16T02:49:58.161Z,17.35
2019-03-16T02:52:49.778Z,22.52
2019-03-16T02:55:37.688Z,15.43
2019-03-16T02:58:26.928Z,19.57
2019-03-16T03:01:16.321Z,23.62
2019-03-16T03:04:06.042Z,21.17
2019-03-16T03:06:54.939Z,18.87
2019-03-16T03:09:44.034Z,27.13
2019-03-16T03:12:33.466Z,16.03
2019-03-16T03:15:22.869Z,24.60
2019-03-16T03:18:12.010Z,19.25
2019-03-16T03:21:01.328Z,32.25
2019-03-16T03:23:50.035Z,26.75
2019-03-16T03:26:39.397Z,30.75
2019-03-16T03:29:28.461Z,28.63
2019-03-16T03:32:17.988Z,18.40
2019-03-16T03:35:09.063Z,29.45
2019-03-16T03:37:57.658Z,26.20
2019-03-16T03:40:46.985Z,26.00
2019-03-16T03:43:36.142Z,31.00
2019-03-16T03:46:25.726Z,17.25
2019-03-16T03:49:15.125Z,21.07
2019-03-16T03:52:04.601Z,30.45
2019-03-16T03:54:54.168Z,32.30
2019-03-16T03:57:43.219Z,28.98
2019-03-16T04:00:32.585Z,20.20
2019-03-16T04:03:21.337Z,23.00
2019-03-16T04:06:10.725Z,18.30
2019-03-16T04:09:00.287Z,23.43
2019-03-16T04:11:49.561Z,25.08
2019-03-16T04:14:38.644Z,29.18
2019-03-16T04:17:27.483Z,23.87
2019-03-16T04:20:16.908Z,29.80
2019-03-16T04:23:05.817Z,22.45
2019-03-16T04:25:54.809Z,15.35
2019-03-16T04:28:44.444Z,17.65
2019-03-16T04:31:33.942Z,28.45
2019-03-16T04:34:29.014Z,28.87
2019-03-16T04:37:13.399Z,32.65
2019-03-16T04:40:05.249Z,26.90
2019-03-16T04:42:54.390Z,27.25
2019-03-16T04:45:43.911Z,31.95
2019-03-16T04:48:33.159Z,17.52
2019-03-16T04:51:22.782Z,28.15
2019-03-16T04:54:11.774Z,27.67
2019-03-16T04:57:01.040Z,27.60
2019-03-16T04:59:50.317Z,29.05
2019-03-16T05:02:39.727Z,18.90
2019-03-16T05:05:28.534Z,23.07
2019-03-16T05:08:17.838Z,23.25
2019-03-16T05:11:07.242Z,25.63
2019-03-16T05:13:56.206Z,28.63
2019-03-16T05:16:44.907Z,29.45
2019-03-16T05:19:33.819Z,29.98
2019-03-16T05:22:23.171Z,29.50
2019-03-16T05:25:12.903Z,25.48
2019-03-16T05:28:02.209Z,21.65
2019-03-16T05:30:51.757Z,22.00
2019-03-16T05:33:41.418Z,27.35
2019-03-16T05:36:30.511Z,20.65
2019-03-16T05:39:19.866Z,18.40
2019-03-16T05:42:08.946Z,25.00
2019-03-16T05:44:58.002Z,21.37
2019-03-16T05:47:47.586Z,17.60
2019-03-16T05:50:36.755Z,28.98
2019-03-16T05:53:25.919Z,22.32
2019-03-16T05:56:14.968Z,22.65
2019-03-16T05:59:04.063Z,24.47
2019-03-16T06:01:52.986Z,24.57
2019-03-16T06:04:42.279Z,18.00
2019-03-16T06:07:31.235Z,16.30
2019-03-16T06:10:20.711Z,21.37
2019-03-16T06:13:09.666Z,26.85
2019-03-16T06:15:58.950Z,26.37
2019-03-16T06:18:47.373Z,23.73
2019-03-16T06:21:36.666Z,16.77
2019-03-16T06:24:28.156Z,27.70
2019-03-16T06:27:16.538Z,34.10
2019-03-16T06:30:15.955Z,21.48
2019-03-16T06:33:05.012Z,17.60
2019-03-16T06:35:54.262Z,23.47
2019-03-16T06:38:43.033Z,20.15
2019-03-16T06:41:32.334Z,23.67
2019-03-16T06:44:21.367Z,15.10
2019-03-16T06:47:10.666Z,18.75
2019-03-16T06:50:00.385Z,33.25
2019-03-16T06:52:49.507Z,16.93
2019-03-16T06:55:38.345Z,31.35
2019-03-16T06:58:26.908Z,24.80
2019-03-16T07:01:15.660Z,14.45
2019-03-16T07:04:04.439Z,24.45
2019-03-16T07:09:41.287Z,12.07
2019-03-16T07:12:30.488Z,17.80
2019-03-16T07:15:19.362Z,14.30
2019-03-16T07:18:08.718Z,16.03
2019-03-16T07:20:58.098Z,19.37
2019-03-16T07:23:47.971Z,21.17
2019-03-16T07:26:36.422Z,16.77
2019-03-16T07:29:25.793Z,13.45
2019-03-16T07:32:14.675Z,21.52
2019-03-16T07:35:03.610Z,13.43
2019-03-16T07:37:52.944Z,11.57
2019-03-16T07:40:42.451Z,19.07
2019-03-16T07:43:31.623Z,24.55
2019-03-16T07:46:20.058Z,13.35
2019-03-16T07:49:09.038Z,16.55
2019-03-16T07:51:58.161Z,18.23
2019-03-16T07:54:47.898Z,22.40
2019-03-16T07:57:40.504Z,16.50
2019-03-16T08:00:28.471Z,16.40
2019-03-16T08:03:17.544Z,16.50
2019-03-16T08:06:07.113Z,11.18
2019-03-16T08:08:56.188Z,13.75
2019-03-16T08:11:45.315Z,16.48
2019-03-16T08:14:34.882Z,12.35
2019-03-16T08:17:24.700Z,23.40
2019-03-16T08:23:02.600Z,23.10
2019-03-16T08:25:51.887Z,16.10
2019-03-16T08:42:42.086Z,18.20
2019-03-16T08:48:23.188Z,16.50
2019-03-16T08:53:59.159Z,19.57
2019-03-16T08:59:37.357Z,15.80
2019-03-16T09:02:26.116Z,16.42
2019-03-16T09:05:15.628Z,13.60
2019-03-16T09:08:04.895Z,17.20
2019-03-16T09:10:54.680Z,12.35
2019-03-16T09:16:32.598Z,13.13
2019-03-16T09:19:21.676Z,13.77
2019-03-16T09:22:11.133Z,20.15
2019-03-16T09:25:00.817Z,13.48
2019-03-16T09:27:50.102Z,17.77
2019-03-16T09:30:39.565Z,11.88
2019-03-16T09:33:32.402Z,12.63
2019-03-16T09:36:21.965Z,9.93
2019-03-16T09:39:11.147Z,13.70
2019-03-16T09:42:00.653Z,15.03
2019-03-16T09:44:49.616Z,16.00
2019-03-16T09:47:38.757Z,9.53
2019-03-16T09:50:27.609Z,8.40
2019-03-16T09:53:17.015Z,9.10
2019-03-16T09:56:05.914Z,8.10
2019-03-16T09:58:55.023Z,13.48
2019-03-16T10:01:43.803Z,8.48
2019-03-16T10:04:33.086Z,13.30
2019-03-16T10:07:22.082Z,6.50
2019-03-16T10:10:16.094Z,7.50
2019-03-16T10:13:05.553Z,9.03
2019-03-16T10:15:55.039Z,12.93
2019-03-16T10:21:32.660Z,13.32
2019-03-16T10:24:21.965Z,11.93
2019-03-16T10:27:10.789Z,8.18
2019-03-16T10:30:00.367Z,5.55
2019-03-16T10:32:50.966Z,7.15
2019-03-16T10:41:16.717Z,6.90
2019-03-16T10:44:05.992Z,9.95
2019-03-16T10:46:55.192Z,5.62
2019-03-16T10:49:44.936Z,6.05
2019-03-16T10:52:33.711Z,5.20
2019-03-16T10:58:11.415Z,8.55
2019-03-16T11:01:00.783Z,7.20
2019-03-16T11:03:49.798Z,6.15
2019-03-16T11:09:27.584Z,9.80
2019-03-16T11:12:16.670Z,4.62
2019-03-16T11:15:10.416Z,5.47
2019-03-16T11:17:59.848Z,5.37
2019-03-16T11:20:49.069Z,3.27
2019-03-16T11:23:38.309Z,3.15
2019-03-16T11:26:27.598Z,5.67
2019-03-16T11:29:16.685Z,3.77
2019-03-16T11:32:06.136Z,2.92
2019-03-16T11:34:54.914Z,2.55
2019-03-16T11:37:44.055Z,6.90
2019-03-16T11:40:33.392Z,4.17
2019-03-16T11:43:22.017Z,3.87
2019-03-16T11:46:11.250Z,2.60
2019-03-16T11:49:00.745Z,2.40
2019-03-16T11:51:49.865Z,5.78
2019-03-16T11:54:39.367Z,2.20
2019-03-16T11:57:28.317Z,3.80
2019-03-16T12:00:18.100Z,4.10
2019-03-16T12:03:07.208Z,4.75
2019-03-16T12:05:56.546Z,3.58
2019-03-16T12:08:46.075Z,4.42
2019-03-16T12:11:35.393Z,3.90
2019-03-16T12:14:24.249Z,1.62
2019-03-16T12:17:13.499Z,6.92
2019-03-16T12:20:02.343Z,2.35
2019-03-16T12:22:51.132Z,2.75
2019-03-16T12:25:40.231Z,4.83
2019-03-16T12:28:29.373Z,2.22
2019-03-16T12:31:18.358Z,2.37
2019-03-16T12:34:07.828Z,1.70
2019-03-16T12:36:56.903Z,2.58
2019-03-16T12:39:46.341Z,1.87
2019-03-16T12:42:35.117Z,2.00
2019-03-16T12:45:24.476Z,2.22
2019-03-16T12:48:13.644Z,1.65
2019-03-16T12:51:02.911Z,2.37
2019-03-16T12:53:52.154Z,2.58
2019-03-16T12:56:41.447Z,3.00
2019-03-16T12:59:30.520Z,1.60
2019-03-16T13:02:19.550Z,3.12
2019-03-16T13:05:09.262Z,2.70
2019-03-16T13:07:58.150Z,3.52
2019-03-16T13:10:47.489Z,2.00
2019-03-16T13:13:36.581Z,1.80
2019-03-16T13:16:26.131Z,2.00
2019-03-16T13:19:15.585Z,1.85
2019-03-16T13:22:04.307Z,2.80
2019-03-16T13:24:53.140Z,4.92
2019-03-16T13:27:41.721Z,3.15
2019-03-16T13:30:30.665Z,2.33
2019-03-16T13:33:20.304Z,1.85
2019-03-16T13:36:09.877Z,3.30
2019-03-16T13:38:58.847Z,2.20
2019-03-16T13:41:48.131Z,3.25
2019-03-16T13:44:37.667Z,4.27
2019-03-16T13:47:26.589Z,2.40
2019-03-16T13:50:20.552Z,3.20
2019-03-16T21:50:51.544Z,12.70
2019-03-16T22:07:42.272Z,9.03
2019-03-16T22:13:19.769Z,9.68
2019-03-16T22:16:11.638Z,12.50
2019-03-16T22:18:59.249Z,7.45
2019-03-16T22:21:48.781Z,10.48
2019-03-16T22:24:38.363Z,10.90
2019-03-16T22:27:27.702Z,6.50
2019-03-16T22:30:18.110Z,7.28
2019-03-16T22:33:07.697Z,10.40
2019-03-16T22:35:56.666Z,10.50
2019-03-16T22:38:45.735Z,7.65
2019-03-16T22:41:35.484Z,8.25
2019-03-16T22:44:24.611Z,6.30
2019-03-16T22:47:14.257Z,7.97
2019-03-16T22:50:03.214Z,11.70
2019-03-16T22:52:52.410Z,10.37
2019-03-16T22:55:41.651Z,6.93
2019-03-16T22:58:30.673Z,8.73
2019-03-16T23:01:20.569Z,9.55
2019-03-16T23:04:09.630Z,12.47
2019-03-16T23:06:59.040Z,7.10
2019-03-16T23:09:47.870Z,10.13
2019-03-16T23:12:37.370Z,6.95
2019-03-16T23:15:26.589Z,6.58
2019-03-16T23:18:15.502Z,7.92
2019-03-16T23:21:04.402Z,5.22
2019-03-16T23:23:53.831Z,5.00
2019-03-16T23:26:42.697Z,10.90
2019-03-16T23:29:31.852Z,8.20
2019-03-16T23:32:21.115Z,5.45
2019-03-16T23:35:10.501Z,5.80
2019-03-16T23:37:59.938Z,6.08
2019-03-16T23:40:49.451Z,5.25
2019-03-16T23:43:38.217Z,7.40
2019-03-16T23:46:27.169Z,9.85
2019-03-16T23:49:16.188Z,6.00
2019-03-16T23:52:05.302Z,6.50
2019-03-16T23:54:54.639Z,5.40
2019-03-16T23:57:46.489Z,4.75
